createdAt,value
2022-12-05T00:01:37.247Z,15.35
2022-12-05T00:04:08.420Z,15.23
2022-12-05T00:06:37.916Z,14.65
2022-12-05T00:09:07.359Z,16.05
2022-12-05T00:11:38.482Z,15.43
2022-12-05T00:14:07.101Z,15.73
2022-12-05T00:16:37.375Z,15.32
2022-12-05T00:19:06.728Z,15.95
2022-12-05T00:21:35.971Z,15.55
2022-12-05T00:24:05.273Z,13.88
2022-12-05T00:26:32.926Z,14.45
2022-12-05T00:29:00.942Z,15.70
2022-12-05T00:31:28.447Z,16.83
2022-12-05T00:33:56.921Z,16.00
2022-12-05T00:36:27.894Z,15.75
2022-12-05T00:38:56.419Z,15.93
2022-12-05T00:41:26.536Z,15.30
2022-12-05T00:43:54.784Z,15.38
2022-12-05T00:46:24.918Z,16.30
2022-12-05T00:48:53.730Z,16.00
2022-12-05T00:51:24.464Z,16.83
2022-12-05T00:53:51.956Z,14.45
2022-12-05T00:56:22.325Z,17.25
2022-12-05T00:58:52.658Z,16.30
2022-12-05T01:01:20.064Z,16.55
2022-12-05T01:03:48.454Z,14.65
2022-12-05T01:06:16.436Z,16.48
2022-12-05T01:08:44.442Z,15.90
2022-12-05T01:11:16.263Z,15.95
2022-12-05T01:13:44.093Z,17.10
2022-12-05T01:16:20.911Z,17.63
2022-12-05T01:18:48.439Z,17.27
2022-12-05T01:23:43.801Z,16.85
2022-12-05T01:26:13.121Z,18.83
2022-12-05T01:28:41.032Z,17.45
2022-12-05T01:31:24.252Z,16.38
2022-12-05T01:33:53.246Z,17.55
2022-12-05T01:36:21.654Z,18.55
2022-12-05T01:38:49.847Z,19.83
2022-12-05T01:41:20.423Z,18.73
2022-12-05T01:44:27.665Z,19.75
2022-12-05T01:46:56.786Z,18.15
2022-12-05T01:49:30.503Z,18.98
2022-12-05T01:52:08.054Z,18.38
2022-12-05T01:54:37.291Z,19.17
2022-12-05T01:57:09.012Z,19.20
2022-12-05T01:59:41.668Z,18.70
2022-12-05T02:02:09.827Z,18.05
2022-12-05T02:04:58.297Z,18.42
2022-12-05T02:07:25.778Z,19.20
2022-12-05T02:09:53.247Z,18.38
2022-12-05T02:14:59.279Z,17.35
2022-12-05T02:17:42.628Z,17.50
2022-12-05T02:20:46.417Z,17.63
2022-12-05T02:23:40.881Z,16.05
2022-12-05T02:26:20.587Z,16.67
2022-12-05T02:28:56.752Z,19.55
2022-12-05T02:31:40.750Z,18.42
2022-12-05T02:34:27.074Z,17.08
2022-12-05T02:37:23.320Z,17.27
2022-12-05T02:40:00.146Z,19.40
2022-12-05T02:42:52.517Z,17.85
2022-12-05T02:45:26.206Z,18.65
2022-12-05T02:47:55.845Z,17.98
2022-12-05T02:50:33.079Z,16.58
2022-12-05T02:53:06.146Z,18.63
2022-12-05T02:55:35.614Z,17.55
2022-12-05T02:58:07.802Z,20.38
2022-12-05T03:00:38.742Z,18.30
2022-12-05T03:03:16.853Z,17.90
2022-12-05T03:05:57.040Z,18.73
2022-12-05T03:08:31.601Z,18.65
2022-12-05T03:11:01.659Z,18.98
2022-12-05T03:13:35.935Z,18.95
2022-12-05T03:16:10.029Z,18.45
2022-12-05T03:18:56.858Z,18.08
2022-12-05T03:21:30.341Z,17.75
2022-12-05T03:24:04.976Z,19.05
2022-12-05T03:26:58.044Z,18.80
2022-12-05T03:29:50.170Z,17.58
2022-12-05T03:32:42.157Z,17.75
2022-12-05T03:35:20.458Z,17.08
2022-12-05T03:38:18.694Z,18.70
2022-12-05T03:41:23.274Z,17.95
2022-12-05T03:44:15.071Z,18.50
2022-12-05T03:46:50.851Z,16.17
2022-12-05T03:49:34.329Z,18.02
2022-12-05T03:52:23.209Z,17.73
2022-12-05T03:54:56.659Z,16.35
2022-12-05T03:57:58.513Z,19.65
2022-12-05T04:00:30.722Z,17.90
2022-12-05T04:03:09.166Z,17.33
2022-12-05T04:05:46.986Z,18.45
2022-12-05T04:08:21.315Z,19.23
2022-12-05T04:10:51.489Z,17.98
2022-12-05T04:13:34.810Z,18.17
2022-12-05T04:16:30.494Z,18.40
2022-12-05T04:19:05.249Z,17.05
2022-12-05T04:21:40.900Z,16.42
2022-12-05T04:24:36.438Z,18.98
2022-12-05T04:27:22.974Z,17.67
2022-12-05T04:30:02.730Z,18.40
2022-12-05T04:32:58.782Z,21.27
2022-12-05T04:35:32.378Z,19.07
2022-12-05T04:38:32.917Z,20.80
2022-12-05T04:41:03.594Z,19.90
2022-12-05T04:43:36.927Z,19.33
2022-12-05T04:46:09.134Z,19.45
2022-12-05T04:48:41.018Z,20.90
2022-12-05T04:51:15.208Z,18.77
2022-12-05T04:53:45.365Z,18.65
2022-12-05T04:56:16.581Z,20.30
2022-12-05T04:58:44.265Z,18.73
2022-12-05T05:01:11.792Z,18.92
2022-12-05T05:03:51.446Z,18.75
2022-12-05T05:06:19.253Z,19.67
2022-12-05T05:08:52.071Z,18.45
2022-12-05T05:11:21.134Z,17.67
2022-12-05T05:13:49.321Z,17.52
2022-12-05T05:16:20.009Z,18.98
2022-12-05T05:18:48.375Z,18.25
2022-12-05T05:21:25.769Z,18.13
2022-12-05T05:23:53.814Z,18.45
2022-12-05T05:26:22.178Z,16.38
2022-12-05T05:28:50.519Z,16.73
2022-12-05T05:31:19.845Z,17.38
2022-12-05T05:33:51.792Z,17.95
2022-12-05T05:36:19.970Z,17.92
2022-12-05T05:38:50.467Z,16.77
2022-12-05T05:41:29.581Z,19.15
2022-12-05T05:43:58.279Z,18.27
2022-12-05T05:46:28.644Z,20.95
2022-12-05T05:48:56.769Z,20.27
2022-12-05T05:51:28.255Z,19.27
2022-12-05T05:53:57.563Z,19.83
2022-12-05T05:56:25.513Z,19.48
2022-12-05T05:58:58.425Z,20.13
2022-12-05T06:01:26.486Z,18.75
2022-12-05T06:03:54.033Z,20.80
2022-12-05T06:06:22.273Z,20.02
2022-12-05T06:08:49.997Z,20.17
2022-12-05T06:11:25.423Z,19.63
2022-12-05T06:13:55.820Z,20.17
2022-12-05T06:16:23.341Z,18.75
2022-12-05T06:18:52.322Z,19.08
2022-12-05T06:21:20.635Z,19.98
2022-12-05T06:23:48.585Z,18.33
2022-12-05T06:26:20.868Z,19.95
2022-12-05T06:28:48.597Z,19.77
2022-12-05T06:31:19.244Z,21.08
2022-12-05T06:33:47.098Z,19.75
2022-12-05T06:36:17.205Z,18.55
2022-12-05T06:38:44.705Z,19.58
2022-12-05T06:43:42.565Z,17.67
2022-12-05T06:46:13.038Z,20.40
2022-12-05T06:48:40.738Z,18.88
2022-12-05T06:53:37.674Z,18.27
2022-12-05T06:56:11.616Z,19.27
2022-12-05T06:58:39.274Z,19.23
2022-12-05T07:01:31.666Z,17.92
2022-12-05T07:03:59.668Z,19.15
2022-12-05T07:06:27.815Z,19.45
2022-12-05T07:08:55.282Z,18.40
2022-12-05T07:18:44.844Z,17.67
2022-12-05T07:23:44.065Z,18.00
2022-12-05T07:26:15.763Z,19.42
2022-12-05T07:28:43.393Z,19.10
2022-12-05T07:31:17.020Z,18.52
2022-12-05T07:33:45.123Z,18.13
2022-12-05T07:36:21.076Z,17.27
2022-12-05T07:38:48.943Z,19.73
2022-12-05T07:41:28.464Z,18.52
2022-12-05T07:43:57.243Z,18.08
2022-12-05T07:46:26.499Z,17.55
2022-12-05T07:48:55.548Z,17.88
2022-12-05T07:51:23.281Z,18.45
2022-12-05T07:53:50.876Z,18.52
2022-12-05T07:56:18.683Z,17.88
2022-12-05T07:58:48.674Z,17.75
2022-12-05T08:01:22.471Z,18.70
2022-12-05T08:03:52.255Z,18.17
2022-12-05T08:06:22.490Z,19.42
2022-12-05T08:08:51.304Z,19.75
2022-12-05T08:11:21.901Z,18.10
2022-12-05T08:13:50.280Z,18.35
2022-12-05T08:16:20.726Z,18.48
2022-12-05T08:18:48.853Z,18.27
2022-12-05T08:21:20.057Z,19.17
2022-12-05T08:23:47.984Z,18.58
2022-12-05T08:26:20.975Z,18.00
2022-12-05T08:28:54.035Z,18.33
2022-12-05T08:31:24.544Z,18.45
2022-12-05T08:33:58.635Z,17.67
2022-12-05T08:36:28.774Z,18.13
2022-12-05T08:39:01.498Z,18.85
2022-12-05T08:41:30.426Z,17.85
2022-12-05T08:44:06.056Z,18.13
2022-12-05T08:46:36.347Z,17.02
2022-12-05T08:49:05.750Z,17.08
2022-12-05T08:51:33.401Z,20.55
2022-12-05T08:54:05.214Z,17.88
2022-12-05T08:56:35.571Z,17.80
2022-12-05T08:59:05.618Z,18.67
2022-12-05T09:01:37.184Z,19.27
2022-12-05T09:04:05.842Z,17.98
2022-12-05T09:06:34.645Z,18.52
2022-12-05T09:09:06.720Z,19.08
2022-12-05T09:11:37.234Z,18.55
2022-12-05T09:14:05.457Z,19.10
2022-12-05T09:16:38.463Z,19.55
2022-12-05T09:19:12.753Z,18.05
2022-12-05T09:21:40.326Z,19.83
2022-12-05T09:26:35.170Z,17.95
2022-12-05T09:29:03.673Z,18.70
2022-12-05T09:31:31.592Z,18.70
2022-12-05T09:33:59.081Z,18.65
2022-12-05T09:38:59.175Z,19.08
2022-12-05T09:42:07.479Z,19.95
2022-12-05T09:44:46.889Z,18.73
2022-12-05T09:47:29.904Z,19.08
2022-12-05T09:50:54.843Z,18.88
2022-12-05T09:53:36.422Z,18.75
2022-12-05T09:56:09.618Z,18.83
2022-12-05T09:58:46.348Z,18.42
2022-12-05T10:01:42.523Z,20.58
2022-12-05T10:04:24.921Z,19.65
2022-12-05T10:07:15.839Z,19.60
2022-12-05T10:09:56.960Z,17.95
2022-12-05T10:12:36.780Z,18.35
2022-12-05T10:15:17.861Z,18.45
2022-12-05T10:17:52.826Z,19.02
2022-12-05T10:20:28.889Z,20.35
2022-12-05T10:23:05.072Z,20.70
2022-12-05T10:25:34.314Z,19.92
2022-12-05T10:28:06.269Z,19.55
2022-12-05T10:30:36.936Z,20.05
2022-12-05T10:33:15.252Z,19.67
2022-12-05T10:35:43.647Z,18.35
2022-12-05T10:38:27.931Z,20.77
2022-12-05T10:40:59.716Z,18.83
2022-12-05T10:43:49.317Z,19.38
2022-12-05T10:46:17.728Z,19.42
2022-12-05T10:48:45.423Z,18.02
2022-12-05T10:51:18.227Z,18.75
2022-12-05T10:53:51.276Z,19.88
2022-12-05T10:56:45.361Z,18.00
2022-12-05T10:59:25.560Z,19.40
2022-12-05T11:02:00.310Z,18.48
2022-12-05T11:04:45.724Z,16.48
2022-12-05T11:07:35.822Z,16.92
2022-12-05T11:10:26.712Z,16.92
2022-12-05T11:12:58.062Z,17.50
2022-12-05T11:15:28.145Z,19.05
2022-12-05T11:17:57.743Z,17.00
2022-12-05T11:20:25.544Z,18.33
2022-12-05T11:22:55.207Z,17.63
2022-12-05T11:25:28.655Z,16.83
2022-12-05T11:28:01.907Z,16.02
2022-12-05T11:30:30.038Z,15.40
2022-12-05T11:33:19.838Z,16.58
2022-12-05T11:36:03.722Z,17.73
2022-12-05T11:38:34.733Z,16.98
2022-12-05T11:41:02.212Z,17.13
2022-12-05T11:46:26.833Z,15.52
2022-12-05T11:49:14.211Z,17.80
2022-12-05T11:51:56.132Z,16.60
2022-12-05T11:55:08.165Z,16.23
2022-12-05T11:57:58.698Z,13.63
2022-12-05T12:00:51.252Z,15.32
2022-12-05T12:03:38.986Z,13.95
2022-12-05T12:06:24.215Z,15.30
2022-12-05T12:09:10.072Z,14.00
2022-12-05T12:11:48.301Z,14.45
2022-12-05T12:14:34.615Z,14.13
2022-12-05T12:17:16.538Z,15.38
2022-12-05T12:19:58.982Z,16.75
2022-12-05T12:22:58.566Z,15.80
2022-12-05T12:25:35.401Z,15.82
2022-12-05T12:28:39.616Z,15.55
2022-12-05T12:31:13.038Z,14.45
2022-12-05T12:33:57.887Z,15.27
2022-12-05T12:36:39.817Z,15.40
2022-12-05T12:39:28.874Z,15.65
2022-12-05T12:42:24.155Z,14.68
2022-12-05T12:45:13.394Z,14.35
2022-12-05T12:47:49.997Z,15.27
2022-12-05T12:50:41.816Z,15.98
2022-12-05T12:53:20.014Z,16.30
2022-12-05T12:56:02.795Z,14.38
2022-12-05T12:59:00.779Z,15.63
2022-12-05T13:01:42.895Z,15.23
2022-12-05T13:04:34.531Z,15.77
2022-12-05T13:07:12.554Z,14.43
2022-12-05T13:10:12.008Z,14.45
2022-12-05T13:12:41.175Z,14.60
2022-12-05T13:15:16.556Z,13.70
2022-12-05T13:17:47.867Z,14.68
2022-12-05T13:20:20.186Z,13.15
2022-12-05T13:22:50.662Z,13.05
2022-12-05T13:25:21.669Z,13.80
2022-12-05T13:28:01.376Z,14.30
2022-12-05T13:30:31.122Z,13.15
2022-12-05T13:33:04.592Z,14.48
2022-12-05T13:35:53.445Z,15.40
2022-12-05T13:38:48.921Z,14.65
2022-12-05T13:41:35.493Z,14.38
2022-12-05T13:44:12.553Z,12.73
2022-12-05T13:46:43.316Z,12.20
2022-12-05T13:49:26.135Z,13.23
2022-12-05T13:51:53.999Z,12.93
2022-12-05T13:54:25.867Z,12.90
2022-12-05T13:57:02.241Z,12.93
2022-12-05T14:00:05.083Z,12.73
2022-12-05T14:02:46.369Z,13.10
2022-12-05T14:05:18.982Z,13.18
2022-12-05T14:07:49.053Z,13.23
2022-12-05T14:10:44.131Z,12.80
2022-12-05T14:13:18.163Z,13.05
2022-12-05T14:15:47.129Z,13.40
2022-12-05T14:18:29.767Z,13.63
2022-12-05T14:21:18.939Z,13.35
2022-12-05T14:24:08.135Z,13.82
2022-12-05T14:27:13.965Z,12.40
2022-12-05T14:30:17.599Z,13.63
2022-12-05T14:32:45.372Z,13.05
2022-12-05T14:35:26.366Z,12.88
2022-12-05T14:37:57.269Z,13.90
2022-12-05T14:40:34.683Z,13.40
2022-12-05T14:43:29.414Z,12.25
2022-12-05T14:46:02.771Z,11.02
2022-12-05T14:48:33.712Z,11.82
2022-12-05T14:51:03.440Z,11.80
2022-12-05T14:53:43.128Z,12.05
2022-12-05T14:56:21.432Z,11.43
2022-12-05T14:59:01.381Z,10.93
2022-12-05T15:01:30.695Z,11.32
2022-12-05T15:04:23.702Z,11.15
2022-12-05T15:06:59.787Z,11.70
2022-12-05T15:09:38.160Z,10.93
2022-12-05T15:12:47.708Z,10.00
2022-12-05T15:15:31.374Z,10.43
2022-12-05T15:18:05.934Z,10.00
2022-12-05T15:21:07.523Z,10.73
2022-12-05T15:23:37.798Z,9.57
2022-12-05T15:26:44.733Z,10.48
2022-12-05T15:29:08.848Z,10.07
2022-12-05T15:31:58.883Z,10.45
2022-12-05T15:34:30.580Z,10.27
2022-12-05T15:37:09.178Z,10.45
2022-12-05T15:40:01.133Z,11.02
2022-12-05T15:42:34.650Z,10.82
2022-12-05T15:45:17.317Z,10.57
2022-12-05T15:47:46.205Z,11.10
2022-12-05T15:50:40.987Z,10.52
2022-12-05T15:53:14.790Z,10.77
2022-12-05T15:55:54.586Z,11.13
2022-12-05T15:58:28.947Z,11.82
2022-12-05T16:01:02.954Z,12.27
2022-12-05T16:03:47.818Z,12.30
2022-12-05T16:06:19.325Z,11.63
2022-12-05T16:08:47.874Z,12.05
2022-12-05T16:11:16.552Z,11.85
2022-12-05T16:13:46.466Z,11.93
2022-12-05T16:16:18.145Z,12.55
2022-12-05T16:18:51.151Z,12.65
2022-12-05T16:21:43.009Z,12.52
2022-12-05T16:24:21.822Z,11.95
2022-12-05T16:27:02.889Z,13.65
2022-12-05T16:29:32.943Z,14.82
2022-12-05T16:32:03.401Z,12.55
2022-12-05T16:34:33.916Z,12.65
2022-12-05T16:37:01.509Z,13.57
2022-12-05T16:41:56.429Z,14.35
2022-12-05T16:47:23.737Z,13.38
2022-12-05T16:49:51.382Z,11.90
2022-12-05T16:52:18.852Z,12.32
2022-12-05T16:57:16.959Z,12.13
2022-12-05T16:59:47.168Z,12.55
2022-12-05T17:02:17.294Z,13.85
2022-12-05T17:04:47.033Z,12.55
2022-12-05T17:07:14.520Z,13.57
2022-12-05T17:09:42.110Z,14.10
2022-12-05T17:14:44.043Z,13.32
2022-12-05T17:19:40.954Z,12.80
2022-12-05T17:27:03.324Z,13.52
2022-12-05T17:29:35.395Z,15.13
2022-12-05T17:32:04.015Z,14.25
2022-12-05T17:34:31.665Z,13.88
2022-12-05T17:37:00.305Z,13.90
2022-12-05T17:39:28.806Z,12.52
2022-12-05T17:41:56.719Z,12.80
2022-12-05T17:44:24.442Z,13.10
2022-12-05T17:49:20.374Z,13.88
2022-12-05T17:52:19.987Z,13.18
2022-12-05T17:54:35.651Z,11.52
2022-12-05T17:57:03.052Z,11.50
2022-12-05T17:59:30.526Z,12.88
2022-12-05T18:01:58.073Z,12.60
2022-12-05T18:04:25.695Z,13.40
2022-12-05T18:06:53.145Z,12.50
2022-12-05T18:14:15.432Z,12.30
2022-12-05T18:16:43.234Z,11.63
2022-12-05T18:19:10.824Z,11.55
2022-12-05T18:21:38.280Z,11.95
2022-12-05T18:26:33.185Z,12.32
2022-12-05T18:31:28.095Z,11.63
2022-12-05T18:33:55.621Z,11.98
2022-12-05T18:38:55.592Z,12.02
2022-12-05T18:41:24.377Z,10.63
2022-12-05T18:43:51.795Z,12.13
2022-12-05T18:48:48.007Z,11.43
2022-12-05T18:51:19.704Z,11.43
2022-12-05T18:53:54.979Z,11.75
2022-12-05T18:56:31.073Z,10.90
2022-12-05T19:01:28.719Z,11.30
2022-12-05T19:03:58.773Z,11.02
2022-12-05T19:06:29.980Z,10.25
2022-12-05T19:09:00.921Z,10.98
2022-12-05T19:11:29.588Z,11.07
2022-12-05T19:14:02.176Z,10.82
2022-12-05T19:16:31.961Z,11.48
2022-12-05T19:19:02.285Z,11.88
2022-12-05T19:21:31.373Z,10.90
2022-12-05T19:23:59.738Z,10.82
2022-12-05T19:26:27.343Z,10.93
2022-12-05T19:31:25.948Z,9.52
2022-12-05T19:33:56.524Z,10.55
2022-12-05T19:36:27.437Z,11.48
2022-12-05T19:38:57.285Z,11.55
2022-12-05T19:41:28.016Z,11.13
2022-12-05T19:43:59.558Z,11.65
2022-12-05T19:46:29.947Z,11.30
2022-12-05T19:48:59.525Z,11.93
2022-12-05T19:51:27.941Z,10.85
2022-12-05T19:53:55.561Z,10.95
2022-12-05T19:56:25.035Z,9.93
2022-12-05T19:58:53.926Z,11.10
2022-12-05T20:01:35.684Z,10.60
2022-12-05T20:04:09.405Z,11.88
2022-12-05T20:06:42.668Z,10.45
2022-12-05T20:09:11.862Z,10.60
2022-12-05T20:11:42.065Z,11.55
2022-12-05T20:14:12.016Z,10.75
2022-12-05T20:16:40.245Z,11.40
2022-12-05T20:19:08.137Z,11.02
2022-12-05T20:21:37.220Z,9.95
2022-12-05T20:24:05.313Z,10.20
2022-12-05T20:26:38.532Z,10.48
2022-12-05T20:29:06.956Z,10.05
2022-12-05T20:31:38.101Z,10.40
2022-12-05T20:34:07.090Z,10.88
2022-12-05T20:36:35.529Z,10.20
2022-12-05T20:39:08.756Z,11.32
2022-12-05T20:41:36.216Z,10.93
2022-12-05T20:46:33.498Z,10.38
2022-12-05T20:49:01.210Z,10.25
2022-12-05T20:51:31.317Z,11.05
2022-12-05T20:54:00.807Z,11.23
2022-12-05T20:56:31.812Z,10.95
2022-12-05T20:59:02.243Z,9.93
2022-12-05T21:01:31.903Z,10.68
2022-12-05T21:03:59.663Z,10.02
2022-12-05T21:06:28.849Z,10.60
2022-12-05T21:08:57.252Z,12.07
2022-12-05T21:11:26.305Z,11.55
2022-12-05T21:14:00.274Z,11.98
2022-12-05T21:16:28.428Z,12.15
2022-12-05T21:18:56.398Z,10.60
2022-12-05T21:21:26.023Z,10.13
2022-12-05T21:23:57.012Z,10.45
2022-12-05T21:26:26.856Z,12.27
2022-12-05T21:28:54.819Z,11.30
2022-12-05T21:31:28.844Z,11.55
2022-12-05T21:33:59.155Z,11.40
2022-12-05T21:36:29.648Z,10.20
2022-12-05T21:38:57.164Z,11.35
2022-12-05T21:43:55.211Z,10.38
2022-12-05T21:46:25.035Z,10.57
2022-12-05T21:48:53.649Z,11.57
2022-12-05T21:51:22.035Z,10.65
2022-12-05T21:53:50.782Z,10.48
2022-12-05T21:56:23.221Z,10.77
2022-12-05T21:58:51.323Z,11.23
2022-12-05T22:01:24.824Z,10.77
2022-12-05T22:03:59.429Z,10.32
2022-12-05T22:06:28.048Z,11.23
2022-12-05T22:08:56.092Z,10.65
2022-12-05T22:11:25.133Z,11.93
2022-12-05T22:13:53.039Z,11.85
2022-12-05T22:16:21.289Z,11.43
2022-12-05T22:18:49.199Z,11.50
2022-12-05T22:21:19.419Z,11.13
2022-12-05T22:23:48.186Z,12.35
2022-12-05T22:26:20.085Z,11.50
2022-12-05T22:28:50.682Z,11.50
2022-12-05T22:31:18.645Z,11.50
2022-12-05T22:33:46.976Z,11.38
2022-12-05T22:36:17.965Z,10.82
2022-12-05T22:38:49.763Z,10.80
2022-12-05T22:41:22.562Z,11.63
2022-12-05T22:43:55.138Z,12.27
2022-12-05T22:46:23.002Z,11.25
2022-12-05T22:48:51.115Z,11.13
2022-12-05T22:51:20.883Z,11.52
2022-12-05T22:53:52.832Z,11.15
2022-12-05T22:56:22.443Z,11.38
2022-12-05T22:58:55.073Z,11.07
2022-12-05T23:01:29.004Z,12.50
2022-12-05T23:04:01.819Z,11.90
2022-12-05T23:06:31.340Z,12.15
2022-12-05T23:09:00.511Z,12.27
2022-12-05T23:11:29.852Z,13.52
2022-12-05T23:14:01.577Z,11.57
2022-12-05T23:16:32.208Z,13.60
2022-12-05T23:19:02.768Z,12.57
2022-12-05T23:21:35.165Z,12.32
2022-12-05T23:24:05.807Z,11.43
2022-12-05T23:26:40.300Z,12.57
2022-12-05T23:29:08.336Z,11.32
2022-12-05T23:31:35.989Z,11.82
2022-12-05T23:34:04.325Z,11.73
2022-12-05T23:36:33.769Z,11.77
2022-12-05T23:39:01.628Z,12.40
2022-12-05T23:41:29.585Z,12.98
2022-12-05T23:43:57.676Z,13.23
2022-12-05T23:46:27.063Z,12.20
2022-12-05T23:48:55.545Z,12.23
2022-12-05T23:51:25.746Z,12.98
2022-12-05T23:53:56.000Z,12.63
2022-12-05T23:56:26.633Z,12.80
2022-12-05T23:58:55.349Z,13.88
